createdAt,value
2023-02-26T00:01:47.039Z,99026.09
2023-02-26T00:04:14.834Z,99011.03
2023-02-26T00:06:53.478Z,99017.53
2023-02-26T00:09:23.994Z,99009.38
2023-02-26T00:11:51.803Z,99016.06
2023-02-26T00:14:20.007Z,99021.28
2023-02-26T00:16:59.366Z,99020.91
2023-02-26T00:19:27.991Z,99017.84
2023-02-26T00:21:55.830Z,99024.91
2023-02-26T00:24:23.390Z,99022.09
2023-02-26T00:26:50.919Z,99029.69
2023-02-26T00:29:21.341Z,99038.63
2023-02-26T00:31:49.191Z,99026.34
2023-02-26T00:34:17.138Z,99035.50
2023-02-26T00:37:10.819Z,99024.13
2023-02-26T00:40:06.745Z,99028.81
2023-02-26T00:42:36.961Z,99038.44
2023-02-26T00:45:05.519Z,99027.78
2023-02-26T00:47:43.128Z,99026.13
2023-02-26T00:50:23.241Z,99029.72
2023-02-26T00:53:02.432Z,99021.09
2023-02-26T00:55:30.652Z,99021.78
2023-02-26T00:58:01.066Z,99022.88
2023-02-26T01:00:29.278Z,99022.09
2023-02-26T01:02:58.422Z,99015.53
2023-02-26T01:05:27.180Z,99017.66
2023-02-26T01:08:01.371Z,99020.66
2023-02-26T01:10:29.877Z,99012.56
2023-02-26T01:12:58.114Z,99007.22
2023-02-26T01:15:27.152Z,99003.44
2023-02-26T01:18:09.231Z,99008.94
2023-02-26T01:20:49.743Z,99018.66
2023-02-26T01:23:25.354Z,99009.19
2023-02-26T01:25:58.419Z,99005.75
2023-02-26T01:28:27.434Z,98995.59
2023-02-26T01:31:00.967Z,99001.31
2023-02-26T01:33:44.161Z,99003.47
2023-02-26T01:36:22.766Z,98999.28
2023-02-26T01:39:06.857Z,99001.66
2023-02-26T01:41:43.032Z,98995.59
2023-02-26T01:44:39.829Z,98995.34
2023-02-26T01:47:07.259Z,98996.59
2023-02-26T01:49:35.334Z,98998.25
2023-02-26T01:52:08.213Z,99003.31
2023-02-26T01:54:38.842Z,98998.25
2023-02-26T01:57:12.666Z,98988.84
2023-02-26T01:59:48.610Z,98997.31
2023-02-26T02:02:22.744Z,98986.44
2023-02-26T02:04:51.455Z,98980.22
2023-02-26T02:07:19.849Z,98982.59
2023-02-26T02:09:48.947Z,98987.31
2023-02-26T02:12:39.155Z,98991.88
2023-02-26T02:15:23.068Z,98992.22
2023-02-26T02:17:57.937Z,98989.91
2023-02-26T02:20:53.886Z,99012.34
2023-02-26T02:23:43.916Z,99012.94
2023-02-26T02:26:44.463Z,99023.03
2023-02-26T02:29:17.949Z,99062.78
2023-02-26T02:31:48.169Z,99070.75
2023-02-26T02:34:55.665Z,99092.06
2023-02-26T02:37:34.828Z,99122.38
2023-02-26T02:40:11.681Z,99108.03
2023-02-26T02:42:46.544Z,99123.84
2023-02-26T02:45:30.615Z,99123.81
2023-02-26T02:48:04.225Z,99128.06
2023-02-26T02:50:37.680Z,99139.25
2023-02-26T02:53:13.218Z,99147.78
2023-02-26T02:55:50.981Z,99154.91
2023-02-26T02:58:23.380Z,99164.34
2023-02-26T03:00:58.056Z,99164.09
2023-02-26T03:03:30.474Z,99168.81
2023-02-26T03:05:58.034Z,99183.81
2023-02-26T03:08:30.186Z,99190.50
2023-02-26T03:10:58.494Z,99197.06
2023-02-26T03:13:27.376Z,99205.88
2023-02-26T03:16:31.036Z,99212.91
2023-02-26T03:19:11.268Z,99206.19
2023-02-26T03:21:56.811Z,99207.69
2023-02-26T03:25:04.682Z,99219.16
2023-02-26T03:28:00.023Z,99210.78
2023-02-26T03:30:33.836Z,99226.47
2023-02-26T03:33:14.282Z,99221.78
2023-02-26T03:35:45.236Z,99205.88
2023-02-26T03:38:20.396Z,99212.56
2023-02-26T03:40:54.375Z,99216.81
2023-02-26T03:43:38.727Z,99215.66
2023-02-26T03:46:15.343Z,99220.50
2023-02-26T03:48:45.406Z,99219.72
2023-02-26T03:51:15.061Z,99227.44
2023-02-26T03:54:26.108Z,99217.84
2023-02-26T03:57:09.986Z,99238.75
2023-02-26T03:59:59.397Z,99242.16
2023-02-26T04:02:48.813Z,99246.56
2023-02-26T04:05:22.475Z,99234.91
2023-02-26T04:07:50.558Z,99255.78
2023-02-26T04:10:22.604Z,99253.66
2023-02-26T04:12:50.550Z,99249.53
2023-02-26T04:15:18.576Z,99252.81
2023-02-26T04:17:46.366Z,99246.69
2023-02-26T04:20:14.046Z,99257.09
2023-02-26T04:22:41.883Z,99261.69
2023-02-26T04:25:10.256Z,99285.69
2023-02-26T04:27:37.910Z,99271.72
2023-02-26T04:30:07.686Z,99271.47
2023-02-26T04:32:36.011Z,99263.13
2023-02-26T04:35:03.935Z,99272.16
2023-02-26T04:37:31.784Z,99275.00
2023-02-26T04:39:59.645Z,99269.56
2023-02-26T04:42:27.659Z,99256.94
2023-02-26T04:44:55.740Z,99260.03
2023-02-26T04:47:28.133Z,99281.41
2023-02-26T04:49:56.128Z,99270.63
2023-02-26T04:52:25.306Z,99261.03
2023-02-26T04:54:53.296Z,99278.47
2023-02-26T04:57:20.809Z,99278.63
2023-02-26T04:59:48.392Z,99286.25
2023-02-26T05:02:16.981Z,99284.47
2023-02-26T05:04:50.547Z,99272.59
2023-02-26T05:07:18.095Z,99275.38
2023-02-26T05:09:45.608Z,99276.13
2023-02-26T05:12:13.215Z,99261.59
2023-02-26T05:14:41.151Z,99270.81
2023-02-26T05:17:09.599Z,99263.38
2023-02-26T05:19:40.516Z,99274.78
2023-02-26T05:22:08.149Z,99278.41
2023-02-26T05:24:37.416Z,99273.56
2023-02-26T05:27:05.373Z,99281.66
2023-02-26T05:29:34.441Z,99282.31
2023-02-26T05:32:04.359Z,99283.06
2023-02-26T05:34:31.777Z,99296.09
2023-02-26T05:36:59.579Z,99298.81
2023-02-26T05:39:27.248Z,99291.38
2023-02-26T05:41:55.621Z,99291.03
2023-02-26T05:44:23.888Z,99296.44
2023-02-26T05:46:51.445Z,99288.44
2023-02-26T05:49:18.944Z,99291.31
2023-02-26T05:51:47.223Z,99296.78
2023-02-26T05:54:15.116Z,99279.72
2023-02-26T05:56:42.633Z,99278.81
2023-02-26T05:59:10.531Z,99270.25
2023-02-26T06:01:38.198Z,99286.19
2023-02-26T06:04:06.378Z,99293.00
2023-02-26T06:06:34.530Z,99297.72
2023-02-26T06:09:02.668Z,99298.66
2023-02-26T06:11:32.917Z,99302.44
2023-02-26T06:14:01.353Z,99321.16
2023-02-26T06:16:29.245Z,99320.44
2023-02-26T06:18:57.020Z,99334.34
2023-02-26T06:21:24.837Z,99335.06
2023-02-26T06:23:55.349Z,99347.09
2023-02-26T06:26:23.999Z,99359.75
2023-02-26T06:28:51.462Z,99366.25
2023-02-26T06:31:19.169Z,99369.00
2023-02-26T06:33:46.705Z,99379.44
2023-02-26T06:36:14.393Z,99373.09
2023-02-26T06:38:42.429Z,99382.47
2023-02-26T06:41:10.012Z,99384.16
2023-02-26T06:43:39.672Z,99393.44
2023-02-26T06:46:07.407Z,99390.56
2023-02-26T06:48:35.513Z,99383.38
2023-02-26T06:51:03.304Z,99381.66
2023-02-26T06:53:33.191Z,99396.84
2023-02-26T06:56:00.758Z,99420.25
2023-02-26T06:58:28.620Z,99405.13
2023-02-26T07:00:56.129Z,99408.41
2023-02-26T07:03:23.900Z,99426.75
2023-02-26T07:05:53.593Z,99433.66
2023-02-26T07:08:21.687Z,99437.72
2023-02-26T07:10:50.098Z,99440.75
2023-02-26T07:13:21.090Z,99439.75
2023-02-26T07:15:51.366Z,99445.72
2023-02-26T07:18:18.851Z,99465.88
2023-02-26T07:20:49.805Z,99484.47
2023-02-26T07:23:17.457Z,99485.53
2023-02-26T07:25:45.473Z,99498.56
2023-02-26T07:28:12.994Z,99500.00
2023-02-26T07:30:43.008Z,99495.59
2023-02-26T07:33:12.636Z,99496.88
2023-02-26T07:35:44.135Z,99498.34
2023-02-26T07:38:11.819Z,99514.38
2023-02-26T07:40:39.564Z,99525.28
2023-02-26T07:43:10.484Z,99539.88
2023-02-26T07:45:38.277Z,99547.50
2023-02-26T07:48:06.276Z,99567.09
2023-02-26T07:50:33.989Z,99561.28
2023-02-26T07:53:04.907Z,99566.72
2023-02-26T07:55:32.481Z,99550.72
2023-02-26T07:58:00.482Z,99574.59
2023-02-26T08:00:43.677Z,99581.75
2023-02-26T08:03:13.487Z,99595.91
2023-02-26T08:05:41.405Z,99604.41
2023-02-26T08:08:09.485Z,99612.16
2023-02-26T08:10:41.090Z,99599.69
2023-02-26T08:13:09.887Z,99595.75
2023-02-26T08:15:37.558Z,99602.03
2023-02-26T08:18:05.394Z,99602.22
2023-02-26T08:20:33.136Z,99605.91
2023-02-26T08:23:00.543Z,99601.03
2023-02-26T08:25:27.994Z,99619.31
2023-02-26T08:27:57.938Z,99622.31
2023-02-26T08:30:25.481Z,99624.75
2023-02-26T08:32:52.975Z,99624.44
2023-02-26T08:35:20.481Z,99624.81
2023-02-26T08:37:48.209Z,99620.50
2023-02-26T08:40:16.704Z,99625.38
2023-02-26T08:42:44.350Z,99621.88
2023-02-26T08:45:12.325Z,99629.22
2023-02-26T08:47:56.104Z,99629.78
2023-02-26T08:50:26.097Z,99637.34
2023-02-26T08:52:54.079Z,99632.91
2023-02-26T08:55:22.950Z,99621.63
2023-02-26T08:57:50.665Z,99631.88
2023-02-26T09:00:19.754Z,99642.59
2023-02-26T09:02:47.476Z,99637.28
2023-02-26T09:05:15.536Z,99639.16
2023-02-26T09:07:44.025Z,99651.06
2023-02-26T09:10:12.728Z,99638.53
2023-02-26T09:12:41.180Z,99647.56
2023-02-26T09:15:10.677Z,99643.03
2023-02-26T09:17:39.393Z,99645.84
2023-02-26T09:20:07.929Z,99638.03
2023-02-26T09:22:36.721Z,99658.66
2023-02-26T09:25:05.354Z,99653.94
2023-02-26T09:27:35.646Z,99654.78
2023-02-26T09:30:05.392Z,99666.13
2023-02-26T09:32:33.100Z,99667.97
2023-02-26T09:35:04.730Z,99664.09
2023-02-26T09:37:32.804Z,99682.75
2023-02-26T09:40:00.856Z,99669.22
2023-02-26T09:42:53.848Z,99680.47
2023-02-26T09:45:33.450Z,99681.69
2023-02-26T09:48:05.407Z,99670.16
2023-02-26T09:50:36.016Z,99677.16
2023-02-26T09:53:22.345Z,99676.28
2023-02-26T09:55:51.936Z,99675.53
2023-02-26T09:58:32.786Z,99670.59
2023-02-26T10:01:16.653Z,99688.13
2023-02-26T10:03:54.996Z,99678.19
2023-02-26T10:06:22.576Z,99688.78
2023-02-26T10:08:55.095Z,99685.69
2023-02-26T10:11:51.335Z,99684.81
2023-02-26T10:14:31.025Z,99672.88
2023-02-26T10:17:03.737Z,99665.25
2023-02-26T10:19:41.402Z,99681.94
2023-02-26T10:22:33.187Z,99682.94
2023-02-26T10:25:09.231Z,99665.44
2023-02-26T10:27:45.379Z,99674.81
2023-02-26T10:30:28.446Z,99684.88
2023-02-26T10:33:04.329Z,99684.88
2023-02-26T10:35:36.640Z,99683.44
2023-02-26T10:38:18.382Z,99671.69
2023-02-26T10:41:04.734Z,99679.84
2023-02-26T10:43:48.317Z,99677.53
2023-02-26T10:46:33.887Z,99680.66
2023-02-26T10:49:29.407Z,99687.75
2023-02-26T10:51:58.715Z,99687.94
2023-02-26T10:54:41.882Z,99681.84
2023-02-26T10:57:23.464Z,99679.97
2023-02-26T10:59:51.174Z,99698.56
2023-02-26T11:02:43.685Z,99689.97
2023-02-26T11:05:21.780Z,99689.28
2023-02-26T11:07:54.734Z,99697.75
2023-02-26T11:10:47.994Z,99696.13
2023-02-26T11:13:18.648Z,99693.09
2023-02-26T11:15:51.505Z,99690.13
2023-02-26T11:18:29.390Z,99703.81
2023-02-26T11:21:00.902Z,99704.16
2023-02-26T11:23:31.836Z,99712.59
2023-02-26T11:26:17.054Z,99714.59
2023-02-26T11:28:48.127Z,99709.38
2023-02-26T11:31:19.314Z,99713.50
2023-02-26T11:33:59.282Z,99719.22
2023-02-26T11:36:31.590Z,99714.09
2023-02-26T11:39:07.965Z,99715.16
2023-02-26T11:41:39.320Z,99718.31
2023-02-26T11:44:11.818Z,99703.88
2023-02-26T11:46:58.318Z,99718.50
2023-02-26T11:49:29.017Z,99708.09
2023-02-26T11:52:11.582Z,99713.66
2023-02-26T11:54:40.211Z,99714.34
2023-02-26T11:57:34.122Z,99701.94
2023-02-26T12:00:17.196Z,99722.53
2023-02-26T12:02:46.931Z,99727.59
2023-02-26T12:05:17.761Z,99719.22
2023-02-26T12:07:48.949Z,99724.94
2023-02-26T12:10:22.106Z,99710.69
2023-02-26T12:12:55.826Z,99712.34
2023-02-26T12:15:29.286Z,99710.13
2023-02-26T12:18:27.425Z,99715.91
2023-02-26T12:21:07.385Z,99717.09
2023-02-26T12:23:48.623Z,99725.59
2023-02-26T12:26:28.503Z,99717.69
2023-02-26T12:28:59.173Z,99712.66
2023-02-26T12:31:30.426Z,99718.72
2023-02-26T12:34:07.851Z,99724.50
2023-02-26T12:36:54.277Z,99733.09
2023-02-26T12:39:50.010Z,99734.13
2023-02-26T12:42:22.822Z,99733.44
2023-02-26T12:45:19.025Z,99732.47
2023-02-26T12:47:47.647Z,99732.84
2023-02-26T12:50:43.673Z,99729.88
2023-02-26T12:53:36.350Z,99720.75
2023-02-26T12:56:28.197Z,99724.44
2023-02-26T12:59:14.394Z,99737.00
2023-02-26T13:02:10.138Z,99734.78
2023-02-26T13:05:01.277Z,99741.75
2023-02-26T13:07:51.809Z,99732.38
2023-02-26T13:10:30.875Z,99749.53
2023-02-26T13:13:16.853Z,99745.16
2023-02-26T13:16:09.678Z,99759.47
2023-02-26T13:19:01.862Z,99754.34
2023-02-26T13:21:36.797Z,99768.09
2023-02-26T13:24:12.248Z,99763.41
2023-02-26T13:26:42.852Z,99773.78
2023-02-26T13:29:25.513Z,99771.78
2023-02-26T13:32:06.003Z,99776.00
2023-02-26T13:34:47.786Z,99770.47
2023-02-26T13:37:30.972Z,99775.69
2023-02-26T13:40:19.998Z,99788.88
2023-02-26T13:42:59.887Z,99776.28
2023-02-26T13:45:27.837Z,99776.38
2023-02-26T13:48:07.764Z,99778.25
2023-02-26T13:50:53.658Z,99777.34
2023-02-26T13:53:24.764Z,99806.63
2023-02-26T13:55:54.181Z,99792.88
2023-02-26T13:58:40.107Z,99796.00
2023-02-26T14:01:15.531Z,99802.25
2023-02-26T14:04:07.817Z,99796.94
2023-02-26T14:06:48.994Z,99800.94
2023-02-26T14:09:22.786Z,99813.56
2023-02-26T14:12:22.961Z,99810.59
2023-02-26T14:15:14.794Z,99809.97
2023-02-26T14:18:01.012Z,99813.19
2023-02-26T14:20:30.059Z,99827.00
2023-02-26T14:23:11.066Z,99831.69
2023-02-26T14:25:52.934Z,99832.72
2023-02-26T14:28:31.951Z,99840.38
2023-02-26T14:31:06.321Z,99847.78
2023-02-26T14:33:45.326Z,99847.84
2023-02-26T14:36:19.002Z,99848.38
2023-02-26T14:38:49.162Z,99863.41
2023-02-26T14:41:39.581Z,99866.81
2023-02-26T14:44:21.010Z,99857.06
2023-02-26T14:46:51.467Z,99864.22
2023-02-26T14:49:32.909Z,99871.03
2023-02-26T14:52:18.921Z,99869.22
2023-02-26T14:55:05.656Z,99876.84
2023-02-26T14:57:44.131Z,99883.50
2023-02-26T15:00:31.794Z,99890.41
2023-02-26T15:03:21.257Z,99892.72
2023-02-26T15:06:11.089Z,99895.38
2023-02-26T15:09:16.741Z,99901.41
2023-02-26T15:12:12.435Z,99904.97
2023-02-26T15:15:17.713Z,99919.75
2023-02-26T15:18:25.458Z,99918.19
2023-02-26T15:21:28.615Z,99924.13
2023-02-26T15:23:58.611Z,99928.72
2023-02-26T15:26:35.694Z,99939.66
2023-02-26T15:29:08.942Z,99942.22
2023-02-26T15:31:53.442Z,99939.47
2023-02-26T15:34:22.160Z,99950.00
2023-02-26T15:36:53.437Z,99957.94
2023-02-26T15:39:24.172Z,99943.28
2023-02-26T15:41:55.314Z,99968.78
2023-02-26T15:44:27.288Z,99970.47
2023-02-26T15:47:12.107Z,99973.66
2023-02-26T15:49:43.797Z,99977.63
2023-02-26T15:52:17.613Z,99986.97
2023-02-26T15:54:51.375Z,99986.66
2023-02-26T15:57:24.221Z,99980.28
2023-02-26T15:59:54.639Z,99986.38
2023-02-26T16:02:27.878Z,99985.38
2023-02-26T16:04:56.444Z,99996.56
2023-02-26T16:07:25.211Z,100009.16
2023-02-26T16:09:57.897Z,100017.53
2023-02-26T16:12:41.617Z,100030.38
2023-02-26T16:15:17.404Z,100031.06
2023-02-26T16:17:49.938Z,100038.00
2023-02-26T16:20:23.792Z,100035.00
2023-02-26T16:23:05.791Z,100048.94
2023-02-26T16:25:53.392Z,100037.50
2023-02-26T16:28:24.215Z,100055.63
2023-02-26T16:30:58.399Z,100069.16
2023-02-26T16:33:30.652Z,100071.13
2023-02-26T16:36:19.118Z,100071.09
2023-02-26T16:38:58.200Z,100077.66
2023-02-26T16:41:30.275Z,100094.69
2023-02-26T16:44:01.738Z,100087.16
2023-02-26T16:46:43.658Z,100085.56
2023-02-26T16:49:20.489Z,100095.22
2023-02-26T16:51:49.292Z,100091.59
2023-02-26T16:54:23.916Z,100110.50
2023-02-26T16:57:03.939Z,100097.00
2023-02-26T16:59:58.320Z,100104.72
2023-02-26T17:02:33.686Z,100112.34
2023-02-26T17:05:21.521Z,100111.75
2023-02-26T17:08:13.775Z,100115.81
2023-02-26T17:10:51.334Z,100130.88
2023-02-26T17:13:23.603Z,100130.28
2023-02-26T17:15:54.270Z,100146.66
2023-02-26T17:18:22.425Z,100145.88
2023-02-26T17:20:53.908Z,100158.44
2023-02-26T17:23:30.077Z,100156.34
2023-02-26T17:26:02.496Z,100170.50
2023-02-26T17:28:36.882Z,100176.00
2023-02-26T17:31:05.931Z,100174.13
2023-02-26T17:33:41.370Z,100176.84
2023-02-26T17:36:15.298Z,100184.94
2023-02-26T17:38:47.184Z,100197.00
2023-02-26T17:41:18.167Z,100199.25
2023-02-26T17:43:46.576Z,100208.91
2023-02-26T17:46:14.753Z,100198.94
2023-02-26T17:48:44.856Z,100220.56
2023-02-26T17:51:15.835Z,100223.06
2023-02-26T17:53:46.781Z,100216.38
2023-02-26T17:56:26.974Z,100221.63
2023-02-26T17:58:57.389Z,100229.97
2023-02-26T18:01:28.766Z,100244.28
2023-02-26T18:03:57.468Z,100241.94
2023-02-26T18:06:25.669Z,100237.34
2023-02-26T18:08:54.251Z,100242.13
2023-02-26T18:11:26.127Z,100239.34
2023-02-26T18:13:55.414Z,100249.25
2023-02-26T18:16:29.325Z,100245.47
2023-02-26T18:18:56.909Z,100255.78
2023-02-26T18:21:26.039Z,100253.91
2023-02-26T18:23:57.538Z,100251.03
2023-02-26T18:26:28.011Z,100269.88
2023-02-26T18:28:59.946Z,100255.59
2023-02-26T18:31:34.627Z,100268.94
2023-02-26T18:34:10.639Z,100268.06
2023-02-26T18:36:39.771Z,100266.91
2023-02-26T18:39:12.265Z,100275.56
2023-02-26T18:41:40.021Z,100271.34
2023-02-26T18:44:08.085Z,100270.66
2023-02-26T18:46:41.172Z,100277.47
2023-02-26T18:49:22.155Z,100270.13
2023-02-26T18:51:51.282Z,100281.66
2023-02-26T18:54:21.690Z,100281.31
2023-02-26T18:56:49.228Z,100287.06
2023-02-26T18:59:18.320Z,100286.75
2023-02-26T19:01:46.992Z,100283.75
2023-02-26T19:04:14.767Z,100286.16
2023-02-26T19:06:43.329Z,100285.09
2023-02-26T19:09:14.149Z,100293.50
2023-02-26T19:11:42.588Z,100294.66
2023-02-26T19:14:10.651Z,100299.13
2023-02-26T19:16:39.489Z,100306.75
2023-02-26T19:19:11.192Z,100312.25
2023-02-26T19:21:40.744Z,100314.56
2023-02-26T19:24:10.415Z,100315.28
2023-02-26T19:26:38.869Z,100308.28
2023-02-26T19:29:12.700Z,100329.00
2023-02-26T19:31:41.177Z,100333.03
2023-02-26T19:34:09.280Z,100334.75
2023-02-26T19:36:37.907Z,100335.59
2023-02-26T19:39:06.542Z,100333.69
2023-02-26T19:41:34.602Z,100330.84
2023-02-26T19:44:05.216Z,100344.19
2023-02-26T19:46:33.501Z,100350.97
2023-02-26T19:49:01.336Z,100347.06
2023-02-26T19:51:29.432Z,100344.97
2023-02-26T19:54:00.290Z,100343.69
2023-02-26T19:56:29.237Z,100346.66
2023-02-26T19:58:57.154Z,100347.75
2023-02-26T20:01:25.374Z,100358.06
2023-02-26T20:03:53.144Z,100357.94
2023-02-26T20:06:22.081Z,100369.09
2023-02-26T20:08:50.080Z,100356.94
2023-02-26T20:11:18.155Z,100372.84
2023-02-26T20:13:47.125Z,100382.16
2023-02-26T20:16:16.209Z,100374.75
2023-02-26T20:18:46.195Z,100384.72
2023-02-26T20:21:14.132Z,100387.84
2023-02-26T20:23:42.484Z,100389.88
2023-02-26T20:26:13.315Z,100390.44
2023-02-26T20:28:42.578Z,100410.91
2023-02-26T20:31:11.514Z,100406.06
2023-02-26T20:33:41.085Z,100406.63
2023-02-26T20:36:10.635Z,100403.25
2023-02-26T20:38:39.465Z,100408.06
2023-02-26T20:41:07.114Z,100418.47
2023-02-26T20:43:35.105Z,100417.78
2023-02-26T20:46:03.530Z,100430.75
2023-02-26T20:48:31.458Z,100435.13
2023-02-26T20:51:06.560Z,100444.63
2023-02-26T20:53:37.115Z,100442.50
2023-02-26T20:56:05.176Z,100453.63
2023-02-26T20:58:32.938Z,100453.03
2023-02-26T21:01:00.610Z,100455.75
2023-02-26T21:03:28.328Z,100454.88
2023-02-26T21:05:58.090Z,100472.22
2023-02-26T21:08:27.147Z,100473.50
2023-02-26T21:10:54.897Z,100472.34
2023-02-26T21:13:23.573Z,100474.06
2023-02-26T21:15:51.586Z,100486.47
2023-02-26T21:18:19.154Z,100487.94
2023-02-26T21:20:48.729Z,100496.00
2023-02-26T21:23:16.795Z,100505.53
2023-02-26T21:25:44.666Z,100513.47
2023-02-26T21:28:12.480Z,100512.22
2023-02-26T21:30:40.079Z,100506.72
2023-02-26T21:33:08.946Z,100508.94
2023-02-26T21:35:36.519Z,100508.75
2023-02-26T21:38:04.227Z,100511.28
2023-02-26T21:40:32.361Z,100504.63
2023-02-26T21:43:00.448Z,100512.66
2023-02-26T21:45:28.109Z,100514.91
2023-02-26T21:47:56.102Z,100515.19
2023-02-26T21:50:23.699Z,100517.84
2023-02-26T21:52:51.293Z,100511.47
2023-02-26T21:55:19.393Z,100507.91
2023-02-26T21:57:47.243Z,100514.09
2023-02-26T22:00:17.628Z,100507.25
2023-02-26T22:02:45.423Z,100506.84
2023-02-26T22:05:15.615Z,100516.25
2023-02-26T22:07:43.452Z,100519.97
2023-02-26T22:10:12.762Z,100511.00
2023-02-26T22:12:40.795Z,100512.94
2023-02-26T22:15:09.079Z,100508.72
2023-02-26T22:17:37.109Z,100510.75
2023-02-26T22:20:10.020Z,100512.47
2023-02-26T22:22:38.481Z,100523.78
2023-02-26T22:25:08.172Z,100516.44
2023-02-26T22:27:35.647Z,100520.00
2023-02-26T22:30:03.500Z,100512.78
2023-02-26T22:32:31.250Z,100523.97
2023-02-26T22:34:59.857Z,100528.84
2023-02-26T22:37:27.534Z,100535.09
2023-02-26T22:39:55.210Z,100538.38
2023-02-26T22:42:23.397Z,100536.69
2023-02-26T22:44:50.968Z,100542.41
2023-02-26T22:47:18.447Z,100546.09
2023-02-26T22:49:46.275Z,100551.00
2023-02-26T22:52:14.356Z,100555.03
2023-02-26T22:54:42.014Z,100552.28
2023-02-26T22:57:09.885Z,100552.78
2023-02-26T22:59:38.205Z,100552.13
2023-02-26T23:02:05.917Z,100565.38
2023-02-26T23:04:33.610Z,100562.25
2023-02-26T23:07:01.378Z,100560.63
2023-02-26T23:09:28.906Z,100552.81
2023-02-26T23:11:56.430Z,100551.13
2023-02-26T23:14:23.878Z,100558.84
2023-02-26T23:16:51.475Z,100561.78
2023-02-26T23:19:19.049Z,100555.94
2023-02-26T23:21:46.606Z,100559.44
2023-02-26T23:24:14.821Z,100554.78
2023-02-26T23:26:42.508Z,100564.94
2023-02-26T23:29:10.312Z,100562.38
2023-02-26T23:31:38.032Z,100557.81
2023-02-26T23:34:07.113Z,100564.66
2023-02-26T23:36:34.718Z,100567.06
2023-02-26T23:39:02.254Z,100572.91
2023-02-26T23:41:29.894Z,100556.50
2023-02-26T23:43:57.325Z,100549.69
2023-02-26T23:46:25.005Z,100558.94
2023-02-26T23:48:52.529Z,100555.41
2023-02-26T23:51:20.262Z,100554.41
2023-02-26T23:53:47.920Z,100564.66
2023-02-26T23:56:15.415Z,100569.97
2023-02-26T23:58:42.929Z,100574.50
